Historyczne dane pomiarowe

Dodano dane terminowe – wersja testowa.

Dane z okresu 1951-2019

Wersja bazy: 1.34 [2019-03-16, lista zmian], aktualizacja planowana na 2019-04-15

Dane meteo z obszaru Polski uzyskane na podstawie danych udostępnionych przez Instytut Meteorologii i Gospodarki Wodnej – Państwowy Instytut Badawczy.

 

Wybierz Datę:    

       

TemperaturaWilgotnośćZachmurzenieWiatrCiśnienieWidzialnośćZjawiska
 Data    tng td wb rh cc ccl cl cm ch dir g1 g2 mslp ppp      
1999-07-20 00:00:00 21.6--- 11.5 15.653wxwx1wx--1014.6 992.2 0.0---wx
1999-07-20 01:00:00 20.3--- 11.5 15.157wxwx2wx--1014.4 991.9----wx
1999-07-20 02:00:00 19.0--- 11.7 14.763wxwx1wx--1014.0 991.5----wx
1999-07-20 03:00:00 19.6--- 11.4 14.859wxwxwx3wx--1013.6 991.1----wx
1999-07-20 04:00:00 19.2--- 11.8 14.862wxwxwx2wx--1013.6 991.1----wx
1999-07-20 05:00:00 19.6--- 12.2 15.262wxwxwx2wx--1013.6 991.1----wx
1999-07-20 06:00:00 21.0--- 13.5 16.462wxwx3wx--1013.6 991.2 0.0---wx
1999-07-20 07:00:00 22.9--- 15.0 17.961wxwx2wx--1013.5 991.3----wx
1999-07-20 08:00:00 25.0--- 15.5 18.956wxwxwx2wx--1013.3 991.2----wx
1999-07-20 09:00:00 26.6--- 15.4 19.450wxwxwx2wx--1012.9 990.9----wx
1999-07-20 10:00:00 28.3--- 14.5 19.543wxwxwx4wx--1012.7 990.9----wx
1999-07-20 11:00:00 29.3--- 15.1 20.142wxwxwxwx4wx--1012.5 990.7----wx
1999-07-20 12:00:00 29.0--- 14.9 19.942wxwxwxwx4wx--1012.2 990.4 0.0---wx
1999-07-20 13:00:00 28.6--- 15.9 20.346wxwxwxwxwx3wx--1011.8 990.0----wx
1999-07-20 14:00:00 29.1--- 16.5 20.847wxwxwxwx3wx--1011.5 989.8----wx
1999-07-20 15:00:00 26.8--- 16.6 20.154wxwxwxwx3wx--1011.8 989.9----wx
1999-07-20 16:00:00 25.9--- 16.7 19.957wxwxwxwx4wx--1012.1 990.1----wxw1
1999-07-20 17:00:00 22.8--- 18.4 19.976wxwxwxwx3wx--1012.7 990.5----wxw1
1999-07-20 18:00:00 21.7--- 18.1 19.380wxwxwxwxwx3wx--1012.4 990.1 0.0---wxw1
1999-07-20 19:00:00 20.5--- 18.7 19.389wxwxwxwxwx2wx--1011.9 989.5----wx
1999-07-20 20:00:00 19.7--- 18.5 18.993wxwxwxwx1wx--1012.5 990.0----wx
1999-07-20 21:00:00 19.0--- 17.9 18.394wxwxwx2wx--1012.4 989.9----wx
1999-07-20 22:00:00 18.7--- 17.3 17.892wxwxwx2wx--1012.1 989.6----wx
1999-07-20 23:00:00 18.2--- 17.0 17.492wxwxwx2wx--1012.0 989.4----wx

 

Źródłem pochodzenia danych jest Instytut Meteorologii i Gospodarki Wodnej – Państwowy Instytut Badawczy. Dane Instytutu Meteorologii i Gospodarki Wodnej – Państwowego Instytutu Badawczego zostały przetworzone.

Dane źródłowe można odnaleźć na stronie https://dane.imgw.pl